sensor_id;sensor_type;location;lat;lon;timestamp;temperature;humidity
19085;DHT22;9675;51.538;6.728;2023-12-20T00:02:17;8.40;99.90
19085;DHT22;9675;51.538;6.728;2023-12-20T00:04:44;8.40;99.90
19085;DHT22;9675;51.538;6.728;2023-12-20T00:07:11;8.40;99.90
19085;DHT22;9675;51.538;6.728;2023-12-20T00:09:39;8.40;99.90
19085;DHT22;9675;51.538;6.728;2023-12-20T00:12:07;8.40;99.90
19085;DHT22;9675;51.538;6.728;2023-12-20T00:14:34;8.40;99.90
19085;DHT22;9675;51.538;6.728;2023-12-20T00:17:01;8.30;99.90
19085;DHT22;9675;51.538;6.728;2023-12-20T00:19:28;8.30;99.90
19085;DHT22;9675;51.538;6.728;2023-12-20T00:21:55;8.30;99.90
19085;DHT22;9675;51.538;6.728;2023-12-20T00:24:22;8.30;99.90
19085;DHT22;9675;51.538;6.728;2023-12-20T00:26:51;8.30;99.90
19085;DHT22;9675;51.538;6.728;2023-12-20T00:29:18;8.30;99.90
19085;DHT22;9675;51.538;6.728;2023-12-20T00:31:45;8.30;99.90
19085;DHT22;9675;51.538;6.728;2023-12-20T00:34:12;8.30;99.90
19085;DHT22;9675;51.538;6.728;2023-12-20T00:36:39;8.30;99.90
19085;DHT22;9675;51.538;6.728;2023-12-20T00:39:06;8.20;99.90
19085;DHT22;9675;51.538;6.728;2023-12-20T00:41:33;8.20;99.90
19085;DHT22;9675;51.538;6.728;2023-12-20T00:44:01;8.30;99.90
19085;DHT22;9675;51.538;6.728;2023-12-20T00:46:28;8.20;99.90
19085;DHT22;9675;51.538;6.728;2023-12-20T00:48:55;8.20;99.90
19085;DHT22;9675;51.538;6.728;2023-12-20T00:51:23;8.20;99.90
19085;DHT22;9675;51.538;6.728;2023-12-20T00:53:50;8.20;99.90
19085;DHT22;9675;51.538;6.728;2023-12-20T00:56:20;8.20;99.90
19085;DHT22;9675;51.538;6.728;2023-12-20T00:58:47;8.20;99.90
19085;DHT22;9675;51.538;6.728;2023-12-20T01:01:15;8.20;99.90
19085;DHT22;9675;51.538;6.728;2023-12-20T01:03:42;8.20;99.90
19085;DHT22;9675;51.538;6.728;2023-12-20T01:06:09;8.20;99.90
19085;DHT22;9675;51.538;6.728;2023-12-20T01:08:37;8.10;99.90
19085;DHT22;9675;51.538;6.728;2023-12-20T01:11:04;8.10;99.90
19085;DHT22;9675;51.538;6.728;2023-12-20T01:13:32;8.10;99.90
19085;DHT22;9675;51.538;6.728;2023-12-20T01:15:59;8.10;99.90
19085;DHT22;9675;51.538;6.728;2023-12-20T01:18:28;8.10;99.90
19085;DHT22;9675;51.538;6.728;2023-12-20T01:20:55;8.10;99.90
19085;DHT22;9675;51.538;6.728;2023-12-20T01:23:22;8.10;99.90
19085;DHT22;9675;51.538;6.728;2023-12-20T01:25:49;8.10;99.90
19085;DHT22;9675;51.538;6.728;2023-12-20T01:28:16;8.10;99.90
19085;DHT22;9675;51.538;6.728;2023-12-20T01:30:43;8.10;99.90
19085;DHT22;9675;51.538;6.728;2023-12-20T01:33:10;8.10;99.90
19085;DHT22;9675;51.538;6.728;2023-12-20T01:35:39;8.10;99.90
19085;DHT22;9675;51.538;6.728;2023-12-20T01:38:06;8.00;99.90
19085;DHT22;9675;51.538;6.728;2023-12-20T01:40:33;8.00;99.90
19085;DHT22;9675;51.538;6.728;2023-12-20T01:43:00;8.00;99.90
19085;DHT22;9675;51.538;6.728;2023-12-20T01:45:27;8.00;99.90
19085;DHT22;9675;51.538;6.728;2023-12-20T01:47:55;8.00;99.90
19085;DHT22;9675;51.538;6.728;2023-12-20T01:50:24;8.00;99.90
19085;DHT22;9675;51.538;6.728;2023-12-20T01:52:54;8.00;99.90
19085;DHT22;9675;51.538;6.728;2023-12-20T01:55:23;8.00;99.90
19085;DHT22;9675;51.538;6.728;2023-12-20T01:57:51;7.90;99.90
19085;DHT22;9675;51.538;6.728;2023-12-20T02:00:19;7.90;99.90
19085;DHT22;9675;51.538;6.728;2023-12-20T02:02:50;7.90;99.90
19085;DHT22;9675;51.538;6.728;2023-12-20T02:05:19;7.90;99.90
19085;DHT22;9675;51.538;6.728;2023-12-20T02:07:47;7.90;99.90
19085;DHT22;9675;51.538;6.728;2023-12-20T02:10:16;7.90;99.90
19085;DHT22;9675;51.538;6.728;2023-12-20T02:12:43;7.80;99.90
19085;DHT22;9675;51.538;6.728;2023-12-20T02:15:10;7.80;99.90
19085;DHT22;9675;51.538;6.728;2023-12-20T02:17:38;7.80;99.90
19085;DHT22;9675;51.538;6.728;2023-12-20T02:20:07;7.80;99.90
19085;DHT22;9675;51.538;6.728;2023-12-20T02:22:35;7.80;99.90
19085;DHT22;9675;51.538;6.728;2023-12-20T02:25:03;7.80;99.90
19085;DHT22;9675;51.538;6.728;2023-12-20T02:27:30;7.80;99.90
19085;DHT22;9675;51.538;6.728;2023-12-20T02:29:57;7.70;99.90
19085;DHT22;9675;51.538;6.728;2023-12-20T02:32:25;7.70;99.90
19085;DHT22;9675;51.538;6.728;2023-12-20T02:34:52;7.70;99.90
19085;DHT22;9675;51.538;6.728;2023-12-20T02:37:20;7.60;99.90
19085;DHT22;9675;51.538;6.728;2023-12-20T02:39:48;7.60;99.90
19085;DHT22;9675;51.538;6.728;2023-12-20T02:42:15;7.60;99.90
19085;DHT22;9675;51.538;6.728;2023-12-20T02:44:42;7.60;99.90
19085;DHT22;9675;51.538;6.728;2023-12-20T02:47:10;7.60;99.90
19085;DHT22;9675;51.538;6.728;2023-12-20T02:49:37;7.50;99.90
19085;DHT22;9675;51.538;6.728;2023-12-20T02:52:04;7.50;99.90
19085;DHT22;9675;51.538;6.728;2023-12-20T02:54:32;7.50;99.90
19085;DHT22;9675;51.538;6.728;2023-12-20T02:57:00;7.50;99.90
19085;DHT22;9675;51.538;6.728;2023-12-20T02:59:27;7.50;99.90
19085;DHT22;9675;51.538;6.728;2023-12-20T03:01:54;7.50;99.90
19085;DHT22;9675;51.538;6.728;2023-12-20T03:04:21;7.50;99.90
19085;DHT22;9675;51.538;6.728;2023-12-20T03:06:48;7.50;99.90
19085;DHT22;9675;51.538;6.728;2023-12-20T03:09:16;7.40;99.90
19085;DHT22;9675;51.538;6.728;2023-12-20T03:11:43;7.40;99.90
19085;DHT22;9675;51.538;6.728;2023-12-20T03:14:11;7.40;99.90
19085;DHT22;9675;51.538;6.728;2023-12-20T03:16:38;7.40;99.90
19085;DHT22;9675;51.538;6.728;2023-12-20T03:19:05;7.40;99.90
19085;DHT22;9675;51.538;6.728;2023-12-20T03:21:32;7.40;99.90
19085;DHT22;9675;51.538;6.728;2023-12-20T03:23:59;7.40;99.90
19085;DHT22;9675;51.538;6.728;2023-12-20T03:26:26;7.30;99.90
19085;DHT22;9675;51.538;6.728;2023-12-20T03:28:53;7.30;99.90
19085;DHT22;9675;51.538;6.728;2023-12-20T03:31:22;7.30;99.90
19085;DHT22;9675;51.538;6.728;2023-12-20T03:33:49;7.30;99.90
19085;DHT22;9675;51.538;6.728;2023-12-20T03:36:16;7.30;99.90
19085;DHT22;9675;51.538;6.728;2023-12-20T03:38:43;7.20;99.90
19085;DHT22;9675;51.538;6.728;2023-12-20T03:41:10;7.20;99.90
19085;DHT22;9675;51.538;6.728;2023-12-20T03:43:38;7.20;99.90
19085;DHT22;9675;51.538;6.728;2023-12-20T03:46:05;7.20;99.90
19085;DHT22;9675;51.538;6.728;2023-12-20T03:48:33;7.20;99.90
19085;DHT22;9675;51.538;6.728;2023-12-20T03:51:00;7.20;99.90
19085;DHT22;9675;51.538;6.728;2023-12-20T03:53:27;7.10;99.90
19085;DHT22;9675;51.538;6.728;2023-12-20T03:55:54;7.10;99.90
19085;DHT22;9675;51.538;6.728;2023-12-20T03:58:21;7.10;99.90
19085;DHT22;9675;51.538;6.728;2023-12-20T04:00:48;7.10;99.90
19085;DHT22;9675;51.538;6.728;2023-12-20T04:03:15;7.10;99.90
19085;DHT22;9675;51.538;6.728;2023-12-20T04:05:43;7.10;99.90
19085;DHT22;9675;51.538;6.728;2023-12-20T04:08:11;7.10;99.90
19085;DHT22;9675;51.538;6.728;2023-12-20T04:10:38;7.10;99.90
19085;DHT22;9675;51.538;6.728;2023-12-20T04:13:05;7.00;99.90
19085;DHT22;9675;51.538;6.728;2023-12-20T04:15:32;7.00;99.90
19085;DHT22;9675;51.538;6.728;2023-12-20T04:18:00;7.00;99.90
19085;DHT22;9675;51.538;6.728;2023-12-20T04:20:27;7.00;99.90
19085;DHT22;9675;51.538;6.728;2023-12-20T04:22:55;7.00;99.90
19085;DHT22;9675;51.538;6.728;2023-12-20T04:25:22;7.00;99.90
19085;DHT22;9675;51.538;6.728;2023-12-20T04:27:49;7.00;99.90
19085;DHT22;9675;51.538;6.728;2023-12-20T04:30:16;7.00;99.90
19085;DHT22;9675;51.538;6.728;2023-12-20T04:32:43;7.00;99.90
19085;DHT22;9675;51.538;6.728;2023-12-20T04:35:10;7.00;99.90
19085;DHT22;9675;51.538;6.728;2023-12-20T04:37:37;6.90;99.90
19085;DHT22;9675;51.538;6.728;2023-12-20T04:40:07;6.90;99.90
19085;DHT22;9675;51.538;6.728;2023-12-20T04:42:34;6.90;99.90
19085;DHT22;9675;51.538;6.728;2023-12-20T04:45:02;6.90;99.90
19085;DHT22;9675;51.538;6.728;2023-12-20T04:47:29;6.90;99.90
19085;DHT22;9675;51.538;6.728;2023-12-20T04:49:56;6.90;99.90
19085;DHT22;9675;51.538;6.728;2023-12-20T04:52:23;6.90;99.90
19085;DHT22;9675;51.538;6.728;2023-12-20T04:54:50;6.90;99.90
19085;DHT22;9675;51.538;6.728;2023-12-20T04:57:18;6.90;99.90
19085;DHT22;9675;51.538;6.728;2023-12-20T04:59:45;6.90;99.90
19085;DHT22;9675;51.538;6.728;2023-12-20T05:02:12;6.80;99.90
19085;DHT22;9675;51.538;6.728;2023-12-20T05:04:39;6.80;99.90
19085;DHT22;9675;51.538;6.728;2023-12-20T05:07:07;6.80;99.90
19085;DHT22;9675;51.538;6.728;2023-12-20T05:09:34;6.80;99.90
19085;DHT22;9675;51.538;6.728;2023-12-20T05:12:01;6.80;99.90
19085;DHT22;9675;51.538;6.728;2023-12-20T05:14:29;6.80;99.90
19085;DHT22;9675;51.538;6.728;2023-12-20T05:16:56;6.80;99.90
19085;DHT22;9675;51.538;6.728;2023-12-20T05:19:24;6.80;99.90
19085;DHT22;9675;51.538;6.728;2023-12-20T05:21:52;6.80;99.90
19085;DHT22;9675;51.538;6.728;2023-12-20T05:24:19;6.80;99.90
19085;DHT22;9675;51.538;6.728;2023-12-20T05:26:46;6.80;99.90
19085;DHT22;9675;51.538;6.728;2023-12-20T05:29:13;6.80;99.90
19085;DHT22;9675;51.538;6.728;2023-12-20T05:31:41;6.80;99.90
19085;DHT22;9675;51.538;6.728;2023-12-20T05:34:08;6.70;99.90
19085;DHT22;9675;51.538;6.728;2023-12-20T05:36:35;6.70;99.90
19085;DHT22;9675;51.538;6.728;2023-12-20T05:39:03;6.80;99.90
19085;DHT22;9675;51.538;6.728;2023-12-20T05:41:30;6.80;99.90
19085;DHT22;9675;51.538;6.728;2023-12-20T05:43:57;6.80;99.90
19085;DHT22;9675;51.538;6.728;2023-12-20T05:46:24;6.70;99.90
19085;DHT22;9675;51.538;6.728;2023-12-20T05:48:54;6.80;99.90
19085;DHT22;9675;51.538;6.728;2023-12-20T05:51:21;6.70;99.90
19085;DHT22;9675;51.538;6.728;2023-12-20T05:53:48;6.80;99.90
19085;DHT22;9675;51.538;6.728;2023-12-20T05:56:15;6.70;99.90
19085;DHT22;9675;51.538;6.728;2023-12-20T05:58:42;6.70;99.90
19085;DHT22;9675;51.538;6.728;2023-12-20T06:01:10;6.80;99.90
19085;DHT22;9675;51.538;6.728;2023-12-20T06:03:41;6.70;99.90
19085;DHT22;9675;51.538;6.728;2023-12-20T06:06:10;6.70;99.90
19085;DHT22;9675;51.538;6.728;2023-12-20T06:08:38;6.80;99.90
19085;DHT22;9675;51.538;6.728;2023-12-20T06:11:05;6.80;99.90
19085;DHT22;9675;51.538;6.728;2023-12-20T06:13:32;6.70;99.90
19085;DHT22;9675;51.538;6.728;2023-12-20T06:15:59;6.70;99.90
19085;DHT22;9675;51.538;6.728;2023-12-20T06:18:26;6.80;99.90
19085;DHT22;9675;51.538;6.728;2023-12-20T06:20:55;6.70;99.90
19085;DHT22;9675;51.538;6.728;2023-12-20T06:23:23;6.80;99.90
19085;DHT22;9675;51.538;6.728;2023-12-20T06:25:50;6.70;99.90
19085;DHT22;9675;51.538;6.728;2023-12-20T06:28:17;6.80;99.90
19085;DHT22;9675;51.538;6.728;2023-12-20T06:30:44;6.80;99.90
19085;DHT22;9675;51.538;6.728;2023-12-20T06:33:12;6.80;99.90
19085;DHT22;9675;51.538;6.728;2023-12-20T06:35:39;6.80;99.90
19085;DHT22;9675;51.538;6.728;2023-12-20T06:38:06;6.80;99.90
19085;DHT22;9675;51.538;6.728;2023-12-20T06:40:36;6.80;99.90
19085;DHT22;9675;51.538;6.728;2023-12-20T06:43:03;6.80;99.90
19085;DHT22;9675;51.538;6.728;2023-12-20T06:45:32;6.80;99.90
19085;DHT22;9675;51.538;6.728;2023-12-20T06:47:59;6.90;99.90
19085;DHT22;9675;51.538;6.728;2023-12-20T06:50:26;6.90;99.90
19085;DHT22;9675;51.538;6.728;2023-12-20T06:52:53;6.90;99.90
19085;DHT22;9675;51.538;6.728;2023-12-20T06:55:19;7.00;99.90
19085;DHT22;9675;51.538;6.728;2023-12-20T06:57:48;7.10;99.90
19085;DHT22;9675;51.538;6.728;2023-12-20T07:00:16;7.20;99.90
19085;DHT22;9675;51.538;6.728;2023-12-20T07:02:45;7.20;99.90
19085;DHT22;9675;51.538;6.728;2023-12-20T07:05:15;7.30;99.90
19085;DHT22;9675;51.538;6.728;2023-12-20T07:07:45;7.40;99.90
19085;DHT22;9675;51.538;6.728;2023-12-20T07:10:12;7.40;99.90
19085;DHT22;9675;51.538;6.728;2023-12-20T07:12:40;7.50;99.90
19085;DHT22;9675;51.538;6.728;2023-12-20T07:15:10;7.50;99.90
19085;DHT22;9675;51.538;6.728;2023-12-20T07:17:37;7.50;99.90
19085;DHT22;9675;51.538;6.728;2023-12-20T07:20:06;7.60;99.90
19085;DHT22;9675;51.538;6.728;2023-12-20T07:22:36;7.70;99.90
19085;DHT22;9675;51.538;6.728;2023-12-20T07:25:04;7.70;99.90
19085;DHT22;9675;51.538;6.728;2023-12-20T07:27:31;7.70;99.90
19085;DHT22;9675;51.538;6.728;2023-12-20T07:29:58;7.70;99.90
19085;DHT22;9675;51.538;6.728;2023-12-20T07:32:27;7.60;99.90
19085;DHT22;9675;51.538;6.728;2023-12-20T07:34:54;7.60;99.90
19085;DHT22;9675;51.538;6.728;2023-12-20T07:37:22;7.70;99.90
19085;DHT22;9675;51.538;6.728;2023-12-20T07:39:49;7.70;99.90
19085;DHT22;9675;51.538;6.728;2023-12-20T07:42:16;7.80;99.90
19085;DHT22;9675;51.538;6.728;2023-12-20T07:44:43;7.80;99.90
19085;DHT22;9675;51.538;6.728;2023-12-20T07:47:10;7.80;99.90
19085;DHT22;9675;51.538;6.728;2023-12-20T07:49:42;7.80;99.90
19085;DHT22;9675;51.538;6.728;2023-12-20T07:52:09;7.80;99.90
19085;DHT22;9675;51.538;6.728;2023-12-20T07:54:36;7.80;99.90
19085;DHT22;9675;51.538;6.728;2023-12-20T07:57:03;7.80;99.90
19085;DHT22;9675;51.538;6.728;2023-12-20T07:59:31;7.90;99.90
19085;DHT22;9675;51.538;6.728;2023-12-20T08:01:58;7.80;99.90
19085;DHT22;9675;51.538;6.728;2023-12-20T08:04:25;7.90;99.90
19085;DHT22;9675;51.538;6.728;2023-12-20T08:06:54;7.90;99.90
19085;DHT22;9675;51.538;6.728;2023-12-20T08:09:21;7.90;99.90
19085;DHT22;9675;51.538;6.728;2023-12-20T08:11:48;7.80;99.90
19085;DHT22;9675;51.538;6.728;2023-12-20T08:14:16;7.90;99.90
19085;DHT22;9675;51.538;6.728;2023-12-20T08:16:43;7.90;99.90
19085;DHT22;9675;51.538;6.728;2023-12-20T08:19:10;7.90;99.90
19085;DHT22;9675;51.538;6.728;2023-12-20T08:21:37;7.80;99.90
19085;DHT22;9675;51.538;6.728;2023-12-20T08:24:06;7.80;99.90
19085;DHT22;9675;51.538;6.728;2023-12-20T08:26:34;7.80;99.90
19085;DHT22;9675;51.538;6.728;2023-12-20T08:29:01;7.80;99.90
19085;DHT22;9675;51.538;6.728;2023-12-20T08:31:28;7.80;99.90
19085;DHT22;9675;51.538;6.728;2023-12-20T08:33:55;7.90;99.90
19085;DHT22;9675;51.538;6.728;2023-12-20T08:36:23;7.90;99.90
19085;DHT22;9675;51.538;6.728;2023-12-20T08:38:50;7.90;99.90
19085;DHT22;9675;51.538;6.728;2023-12-20T08:41:18;7.80;99.90
19085;DHT22;9675;51.538;6.728;2023-12-20T08:43:46;7.90;99.90
19085;DHT22;9675;51.538;6.728;2023-12-20T08:46:14;7.90;99.90
19085;DHT22;9675;51.538;6.728;2023-12-20T08:48:41;7.90;99.90
19085;DHT22;9675;51.538;6.728;2023-12-20T08:51:08;7.90;99.90
19085;DHT22;9675;51.538;6.728;2023-12-20T08:53:36;7.90;99.90
19085;DHT22;9675;51.538;6.728;2023-12-20T08:56:04;7.90;99.90
19085;DHT22;9675;51.538;6.728;2023-12-20T08:58:32;7.90;99.90
19085;DHT22;9675;51.538;6.728;2023-12-20T09:01:01;7.90;99.90
19085;DHT22;9675;51.538;6.728;2023-12-20T09:03:28;7.90;99.90
19085;DHT22;9675;51.538;6.728;2023-12-20T09:05:55;7.90;99.90
19085;DHT22;9675;51.538;6.728;2023-12-20T09:08:23;7.90;99.90
19085;DHT22;9675;51.538;6.728;2023-12-20T09:10:50;7.90;99.90
19085;DHT22;9675;51.538;6.728;2023-12-20T09:13:17;7.90;99.90
19085;DHT22;9675;51.538;6.728;2023-12-20T09:15:45;7.90;99.90
19085;DHT22;9675;51.538;6.728;2023-12-20T09:18:12;7.90;99.90
19085;DHT22;9675;51.538;6.728;2023-12-20T09:20:39;7.90;99.90
19085;DHT22;9675;51.538;6.728;2023-12-20T09:23:06;7.90;99.90
19085;DHT22;9675;51.538;6.728;2023-12-20T09:25:33;7.90;99.90
19085;DHT22;9675;51.538;6.728;2023-12-20T09:28:00;7.90;99.90
19085;DHT22;9675;51.538;6.728;2023-12-20T09:30:27;7.90;99.90
19085;DHT22;9675;51.538;6.728;2023-12-20T09:32:56;7.90;99.90
19085;DHT22;9675;51.538;6.728;2023-12-20T09:35:23;7.90;99.90
19085;DHT22;9675;51.538;6.728;2023-12-20T09:37:51;7.90;99.90
19085;DHT22;9675;51.538;6.728;2023-12-20T09:40:19;7.80;99.90
19085;DHT22;9675;51.538;6.728;2023-12-20T09:42:50;7.80;99.90
19085;DHT22;9675;51.538;6.728;2023-12-20T09:45:23;7.80;99.90
19085;DHT22;9675;51.538;6.728;2023-12-20T09:47:52;7.80;99.90
19085;DHT22;9675;51.538;6.728;2023-12-20T09:50:22;7.90;99.90
19085;DHT22;9675;51.538;6.728;2023-12-20T09:52:50;7.90;99.90
19085;DHT22;9675;51.538;6.728;2023-12-20T09:55:19;7.80;99.90
19085;DHT22;9675;51.538;6.728;2023-12-20T09:57:47;7.90;99.90
19085;DHT22;9675;51.538;6.728;2023-12-20T10:00:15;7.90;99.90
19085;DHT22;9675;51.538;6.728;2023-12-20T10:02:48;7.90;99.90
19085;DHT22;9675;51.538;6.728;2023-12-20T10:05:18;7.90;99.90
19085;DHT22;9675;51.538;6.728;2023-12-20T10:07:47;7.90;99.90
19085;DHT22;9675;51.538;6.728;2023-12-20T10:10:14;7.90;99.90
19085;DHT22;9675;51.538;6.728;2023-12-20T10:13:01;7.90;99.90
19085;DHT22;9675;51.538;6.728;2023-12-20T10:15:29;7.90;99.90
19085;DHT22;9675;51.538;6.728;2023-12-20T10:17:57;7.90;99.90
19085;DHT22;9675;51.538;6.728;2023-12-20T10:20:24;7.90;99.90
19085;DHT22;9675;51.538;6.728;2023-12-20T10:22:54;7.90;99.90
19085;DHT22;9675;51.538;6.728;2023-12-20T10:25:22;8.00;99.90
19085;DHT22;9675;51.538;6.728;2023-12-20T10:27:50;8.00;99.90
19085;DHT22;9675;51.538;6.728;2023-12-20T10:30:34;8.00;99.90
19085;DHT22;9675;51.538;6.728;2023-12-20T10:33:02;8.00;99.90
19085;DHT22;9675;51.538;6.728;2023-12-20T10:35:29;8.00;99.90
19085;DHT22;9675;51.538;6.728;2023-12-20T10:37:58;8.00;99.90
19085;DHT22;9675;51.538;6.728;2023-12-20T10:40:30;8.10;99.90
19085;DHT22;9675;51.538;6.728;2023-12-20T10:42:59;8.10;99.90
19085;DHT22;9675;51.538;6.728;2023-12-20T10:45:28;8.10;99.90
19085;DHT22;9675;51.538;6.728;2023-12-20T10:47:56;8.10;99.90
19085;DHT22;9675;51.538;6.728;2023-12-20T10:50:26;8.10;99.90
19085;DHT22;9675;51.538;6.728;2023-12-20T10:52:57;8.10;99.90
19085;DHT22;9675;51.538;6.728;2023-12-20T10:55:25;8.10;99.90
19085;DHT22;9675;51.538;6.728;2023-12-20T10:57:53;8.10;99.90
19085;DHT22;9675;51.538;6.728;2023-12-20T11:00:28;8.20;99.90
19085;DHT22;9675;51.538;6.728;2023-12-20T11:02:57;8.20;99.90
19085;DHT22;9675;51.538;6.728;2023-12-20T11:05:33;8.20;99.90
19085;DHT22;9675;51.538;6.728;2023-12-20T11:08:11;8.10;99.90
19085;DHT22;9675;51.538;6.728;2023-12-20T11:13:34;8.20;99.90
19085;DHT22;9675;51.538;6.728;2023-12-20T11:16:07;8.20;99.90
19085;DHT22;9675;51.538;6.728;2023-12-20T11:18:35;8.20;99.90
19085;DHT22;9675;51.538;6.728;2023-12-20T11:21:04;8.20;99.90
19085;DHT22;9675;51.538;6.728;2023-12-20T11:23:33;8.20;99.90
19085;DHT22;9675;51.538;6.728;2023-12-20T11:26:01;8.20;99.90
19085;DHT22;9675;51.538;6.728;2023-12-20T11:28:30;8.20;99.90
19085;DHT22;9675;51.538;6.728;2023-12-20T11:30:58;8.20;99.90
19085;DHT22;9675;51.538;6.728;2023-12-20T11:33:31;8.20;99.90
19085;DHT22;9675;51.538;6.728;2023-12-20T11:36:03;8.30;99.90
19085;DHT22;9675;51.538;6.728;2023-12-20T11:38:37;8.20;99.90
19085;DHT22;9675;51.538;6.728;2023-12-20T11:41:06;8.30;99.90
19085;DHT22;9675;51.538;6.728;2023-12-20T11:43:35;8.30;99.90
19085;DHT22;9675;51.538;6.728;2023-12-20T11:46:04;8.30;99.90
19085;DHT22;9675;51.538;6.728;2023-12-20T11:48:33;8.30;99.90
19085;DHT22;9675;51.538;6.728;2023-12-20T11:51:02;8.30;99.90
19085;DHT22;9675;51.538;6.728;2023-12-20T11:53:36;8.30;99.90
19085;DHT22;9675;51.538;6.728;2023-12-20T11:56:04;8.30;99.90
19085;DHT22;9675;51.538;6.728;2023-12-20T11:58:33;8.30;99.90
19085;DHT22;9675;51.538;6.728;2023-12-20T12:01:01;8.30;99.90
19085;DHT22;9675;51.538;6.728;2023-12-20T12:03:29;8.30;99.90
19085;DHT22;9675;51.538;6.728;2023-12-20T12:05:57;8.30;99.90
19085;DHT22;9675;51.538;6.728;2023-12-20T12:08:26;8.30;99.90
19085;DHT22;9675;51.538;6.728;2023-12-20T12:10:54;8.30;99.90
19085;DHT22;9675;51.538;6.728;2023-12-20T12:13:22;8.30;99.90
19085;DHT22;9675;51.538;6.728;2023-12-20T12:15:53;8.30;99.90
19085;DHT22;9675;51.538;6.728;2023-12-20T12:18:20;8.30;99.90
19085;DHT22;9675;51.538;6.728;2023-12-20T12:20:47;8.30;99.90
19085;DHT22;9675;51.538;6.728;2023-12-20T12:23:14;8.30;99.90
19085;DHT22;9675;51.538;6.728;2023-12-20T12:25:50;8.30;99.90
19085;DHT22;9675;51.538;6.728;2023-12-20T12:28:18;8.30;99.90
19085;DHT22;9675;51.538;6.728;2023-12-20T12:30:56;8.30;99.90
19085;DHT22;9675;51.538;6.728;2023-12-20T12:33:24;8.40;99.90
19085;DHT22;9675;51.538;6.728;2023-12-20T12:35:52;8.30;99.90
19085;DHT22;9675;51.538;6.728;2023-12-20T12:38:20;8.40;99.90
19085;DHT22;9675;51.538;6.728;2023-12-20T12:40:47;8.40;99.90
19085;DHT22;9675;51.538;6.728;2023-12-20T12:43:15;8.40;99.90
19085;DHT22;9675;51.538;6.728;2023-12-20T12:45:44;8.40;99.90
19085;DHT22;9675;51.538;6.728;2023-12-20T12:48:12;8.40;99.90
19085;DHT22;9675;51.538;6.728;2023-12-20T12:50:40;8.40;99.90
19085;DHT22;9675;51.538;6.728;2023-12-20T12:53:07;8.40;99.90
19085;DHT22;9675;51.538;6.728;2023-12-20T12:55:35;8.40;99.90
19085;DHT22;9675;51.538;6.728;2023-12-20T12:58:02;8.40;99.90
19085;DHT22;9675;51.538;6.728;2023-12-20T13:00:29;8.40;99.90
19085;DHT22;9675;51.538;6.728;2023-12-20T13:02:58;8.40;99.90
19085;DHT22;9675;51.538;6.728;2023-12-20T13:05:25;8.40;99.90
19085;DHT22;9675;51.538;6.728;2023-12-20T13:07:53;8.40;99.90
19085;DHT22;9675;51.538;6.728;2023-12-20T13:10:20;8.40;99.90
19085;DHT22;9675;51.538;6.728;2023-12-20T13:12:47;8.40;99.90
19085;DHT22;9675;51.538;6.728;2023-12-20T13:15:14;8.40;99.90
19085;DHT22;9675;51.538;6.728;2023-12-20T13:17:42;8.40;99.90
19085;DHT22;9675;51.538;6.728;2023-12-20T13:20:10;8.40;99.90
19085;DHT22;9675;51.538;6.728;2023-12-20T13:22:37;8.50;99.90
19085;DHT22;9675;51.538;6.728;2023-12-20T13:25:05;8.50;99.90
19085;DHT22;9675;51.538;6.728;2023-12-20T13:27:33;8.50;99.90
19085;DHT22;9675;51.538;6.728;2023-12-20T13:30:00;8.50;99.90
19085;DHT22;9675;51.538;6.728;2023-12-20T13:32:28;8.40;99.90
19085;DHT22;9675;51.538;6.728;2023-12-20T13:34:55;8.40;99.90
19085;DHT22;9675;51.538;6.728;2023-12-20T13:37:23;8.50;99.90
19085;DHT22;9675;51.538;6.728;2023-12-20T13:39:51;8.40;99.90
19085;DHT22;9675;51.538;6.728;2023-12-20T13:42:18;8.50;99.90
19085;DHT22;9675;51.538;6.728;2023-12-20T13:44:46;8.50;99.90
19085;DHT22;9675;51.538;6.728;2023-12-20T13:47:13;8.50;99.90
19085;DHT22;9675;51.538;6.728;2023-12-20T13:49:40;8.50;99.90
19085;DHT22;9675;51.538;6.728;2023-12-20T13:52:07;8.50;99.90
19085;DHT22;9675;51.538;6.728;2023-12-20T13:54:36;8.50;99.90
19085;DHT22;9675;51.538;6.728;2023-12-20T13:57:03;8.50;99.90
19085;DHT22;9675;51.538;6.728;2023-12-20T13:59:30;8.40;99.90
19085;DHT22;9675;51.538;6.728;2023-12-20T14:01:57;8.50;99.90
19085;DHT22;9675;51.538;6.728;2023-12-20T14:04:26;8.40;99.90
19085;DHT22;9675;51.538;6.728;2023-12-20T14:06:53;8.50;99.90
19085;DHT22;9675;51.538;6.728;2023-12-20T14:09:20;8.50;99.90
19085;DHT22;9675;51.538;6.728;2023-12-20T14:11:49;8.50;99.90
19085;DHT22;9675;51.538;6.728;2023-12-20T14:14:16;8.50;99.90
19085;DHT22;9675;51.538;6.728;2023-12-20T14:16:43;8.50;99.90
19085;DHT22;9675;51.538;6.728;2023-12-20T14:19:10;8.50;99.90
19085;DHT22;9675;51.538;6.728;2023-12-20T14:21:38;8.40;99.90
19085;DHT22;9675;51.538;6.728;2023-12-20T14:24:05;8.50;99.90
19085;DHT22;9675;51.538;6.728;2023-12-20T14:26:33;8.50;99.90
19085;DHT22;9675;51.538;6.728;2023-12-20T14:29:01;8.50;99.90
19085;DHT22;9675;51.538;6.728;2023-12-20T14:31:29;8.50;99.90
19085;DHT22;9675;51.538;6.728;2023-12-20T14:33:56;8.50;99.90
19085;DHT22;9675;51.538;6.728;2023-12-20T14:36:24;8.40;99.90
19085;DHT22;9675;51.538;6.728;2023-12-20T14:38:51;8.50;99.90
19085;DHT22;9675;51.538;6.728;2023-12-20T14:41:18;8.40;99.90
19085;DHT22;9675;51.538;6.728;2023-12-20T14:43:45;8.50;99.90
19085;DHT22;9675;51.538;6.728;2023-12-20T14:46:14;8.50;99.90
19085;DHT22;9675;51.538;6.728;2023-12-20T14:48:41;8.50;99.90
19085;DHT22;9675;51.538;6.728;2023-12-20T14:51:08;8.50;99.90
19085;DHT22;9675;51.538;6.728;2023-12-20T14:53:36;8.50;99.90
19085;DHT22;9675;51.538;6.728;2023-12-20T14:56:03;8.50;99.90
19085;DHT22;9675;51.538;6.728;2023-12-20T14:58:31;8.40;99.90
19085;DHT22;9675;51.538;6.728;2023-12-20T15:00:59;8.40;99.90
19085;DHT22;9675;51.538;6.728;2023-12-20T15:03:28;8.50;99.90
19085;DHT22;9675;51.538;6.728;2023-12-20T15:05:56;8.40;99.90
19085;DHT22;9675;51.538;6.728;2023-12-20T15:08:24;8.50;99.90
19085;DHT22;9675;51.538;6.728;2023-12-20T15:10:51;8.50;99.90
19085;DHT22;9675;51.538;6.728;2023-12-20T15:13:19;8.50;99.90
19085;DHT22;9675;51.538;6.728;2023-12-20T15:15:46;8.50;99.90
19085;DHT22;9675;51.538;6.728;2023-12-20T15:18:13;8.50;99.90
19085;DHT22;9675;51.538;6.728;2023-12-20T15:20:41;8.40;99.90
19085;DHT22;9675;51.538;6.728;2023-12-20T15:23:10;8.50;99.90
19085;DHT22;9675;51.538;6.728;2023-12-20T15:25:37;8.40;99.90
19085;DHT22;9675;51.538;6.728;2023-12-20T15:28:05;8.50;99.90
19085;DHT22;9675;51.538;6.728;2023-12-20T15:30:32;8.50;99.90
19085;DHT22;9675;51.538;6.728;2023-12-20T15:33:00;8.40;99.90
19085;DHT22;9675;51.538;6.728;2023-12-20T15:35:28;8.50;99.90
19085;DHT22;9675;51.538;6.728;2023-12-20T15:37:58;8.50;99.90
19085;DHT22;9675;51.538;6.728;2023-12-20T15:40:25;8.50;99.90
19085;DHT22;9675;51.538;6.728;2023-12-20T15:42:52;8.50;99.90
19085;DHT22;9675;51.538;6.728;2023-12-20T15:45:20;8.50;99.90
19085;DHT22;9675;51.538;6.728;2023-12-20T15:47:47;8.50;99.90
19085;DHT22;9675;51.538;6.728;2023-12-20T15:50:15;8.50;99.90
19085;DHT22;9675;51.538;6.728;2023-12-20T15:52:42;8.50;99.90
19085;DHT22;9675;51.538;6.728;2023-12-20T15:55:11;8.50;99.90
19085;DHT22;9675;51.538;6.728;2023-12-20T15:57:38;8.50;99.90
19085;DHT22;9675;51.538;6.728;2023-12-20T16:00:06;8.40;99.90
19085;DHT22;9675;51.538;6.728;2023-12-20T16:02:34;8.50;99.90
19085;DHT22;9675;51.538;6.728;2023-12-20T16:05:01;8.50;99.90
19085;DHT22;9675;51.538;6.728;2023-12-20T16:07:28;8.50;99.90
19085;DHT22;9675;51.538;6.728;2023-12-20T16:09:55;8.50;99.90